sensor_id;sensor_type;location;lat;lon;timestamp;P1;durP1;ratioP1;P2;durP2;ratioP2
1024;SDS011;501;48.214;11.350;2024-03-02T00:00:10;14.53;;;11.87;;
1024;SDS011;501;48.214;11.350;2024-03-02T00:05:15;14.30;;;11.80;;
1024;SDS011;501;48.214;11.350;2024-03-02T00:07:47;16.00;;;11.37;;
1024;SDS011;501;48.214;11.350;2024-03-02T00:10:30;18.33;;;14.60;;
1024;SDS011;501;48.214;11.350;2024-03-02T00:13:08;15.70;;;13.90;;
1024;SDS011;501;48.214;11.350;2024-03-02T00:15:46;15.40;;;12.83;;
1024;SDS011;501;48.214;11.350;2024-03-02T00:18:19;14.90;;;12.27;;
1024;SDS011;501;48.214;11.350;2024-03-02T00:20:49;13.30;;;11.70;;
1024;SDS011;501;48.214;11.350;2024-03-02T00:23:26;13.47;;;11.67;;
1024;SDS011;501;48.214;11.350;2024-03-02T00:25:54;12.60;;;11.00;;
1024;SDS011;501;48.214;11.350;2024-03-02T00:28:24;15.60;;;11.90;;
1024;SDS011;501;48.214;11.350;2024-03-02T00:33:30;17.83;;;12.77;;
1024;SDS011;501;48.214;11.350;2024-03-02T00:35:58;11.70;;;10.17;;
1024;SDS011;501;48.214;11.350;2024-03-02T00:38:25;12.87;;;10.97;;
1024;SDS011;501;48.214;11.350;2024-03-02T00:40:52;14.13;;;11.30;;
1024;SDS011;501;48.214;11.350;2024-03-02T00:43:38;13.03;;;11.03;;
1024;SDS011;501;48.214;11.350;2024-03-02T00:46:19;13.00;;;11.30;;
1024;SDS011;501;48.214;11.350;2024-03-02T00:48:51;15.30;;;12.27;;
1024;SDS011;501;48.214;11.350;2024-03-02T00:51:20;12.53;;;10.73;;
1024;SDS011;501;48.214;11.350;2024-03-02T00:53:46;13.00;;;10.90;;
1024;SDS011;501;48.214;11.350;2024-03-02T00:56:13;14.90;;;11.90;;
1024;SDS011;501;48.214;11.350;2024-03-02T00:58:39;14.80;;;11.50;;
1024;SDS011;501;48.214;11.350;2024-03-02T01:01:05;12.53;;;10.60;;
1024;SDS011;501;48.214;11.350;2024-03-02T01:03:32;14.40;;;11.00;;
1024;SDS011;501;48.214;11.350;2024-03-02T01:05:58;14.40;;;11.33;;
1024;SDS011;501;48.214;11.350;2024-03-02T01:08:24;13.53;;;11.40;;
1024;SDS011;501;48.214;11.350;2024-03-02T01:10:51;13.70;;;10.87;;
1024;SDS011;501;48.214;11.350;2024-03-02T01:13:16;15.27;;;11.67;;
1024;SDS011;501;48.214;11.350;2024-03-02T01:15:42;16.17;;;12.30;;
1024;SDS011;501;48.214;11.350;2024-03-02T01:18:08;25.47;;;18.87;;
1024;SDS011;501;48.214;11.350;2024-03-02T01:20:34;20.80;;;15.30;;
1024;SDS011;501;48.214;11.350;2024-03-02T01:23:00;16.80;;;13.50;;
1024;SDS011;501;48.214;11.350;2024-03-02T01:25:25;14.10;;;11.97;;
1024;SDS011;501;48.214;11.350;2024-03-02T01:27:51;14.40;;;11.23;;
1024;SDS011;501;48.214;11.350;2024-03-02T01:30:17;14.53;;;12.40;;
1024;SDS011;501;48.214;11.350;2024-03-02T01:32:42;13.63;;;11.03;;
1024;SDS011;501;48.214;11.350;2024-03-02T01:35:08;17.63;;;12.73;;
1024;SDS011;501;48.214;11.350;2024-03-02T01:37:34;15.77;;;12.83;;
1024;SDS011;501;48.214;11.350;2024-03-02T01:40:01;14.80;;;11.43;;
1024;SDS011;501;48.214;11.350;2024-03-02T01:42:27;14.37;;;11.40;;
1024;SDS011;501;48.214;11.350;2024-03-02T01:44:54;12.70;;;10.90;;
1024;SDS011;501;48.214;11.350;2024-03-02T01:47:19;12.47;;;10.80;;
1024;SDS011;501;48.214;11.350;2024-03-02T01:49:45;14.97;;;12.37;;
1024;SDS011;501;48.214;11.350;2024-03-02T01:52:11;12.80;;;11.40;;
1024;SDS011;501;48.214;11.350;2024-03-02T01:54:36;13.03;;;11.20;;
1024;SDS011;501;48.214;11.350;2024-03-02T01:57:02;14.33;;;12.20;;
1024;SDS011;501;48.214;11.350;2024-03-02T01:59:28;17.57;;;12.53;;
1024;SDS011;501;48.214;11.350;2024-03-02T02:01:53;15.10;;;13.00;;
1024;SDS011;501;48.214;11.350;2024-03-02T02:04:19;15.50;;;12.10;;
1024;SDS011;501;48.214;11.350;2024-03-02T02:06:52;13.90;;;11.70;;
1024;SDS011;501;48.214;11.350;2024-03-02T02:09:17;18.30;;;11.37;;
1024;SDS011;501;48.214;11.350;2024-03-02T02:11:43;13.93;;;11.70;;
1024;SDS011;501;48.214;11.350;2024-03-02T02:14:09;14.73;;;11.70;;
1024;SDS011;501;48.214;11.350;2024-03-02T02:16:35;14.60;;;11.97;;
1024;SDS011;501;48.214;11.350;2024-03-02T02:19:00;15.27;;;13.43;;
1024;SDS011;501;48.214;11.350;2024-03-02T02:21:26;14.50;;;12.13;;
1024;SDS011;501;48.214;11.350;2024-03-02T02:23:52;14.63;;;12.07;;
1024;SDS011;501;48.214;11.350;2024-03-02T02:26:18;13.80;;;12.00;;
1024;SDS011;501;48.214;11.350;2024-03-02T02:28:43;15.67;;;11.93;;
1024;SDS011;501;48.214;11.350;2024-03-02T02:33:46;14.27;;;11.17;;
1024;SDS011;501;48.214;11.350;2024-03-02T02:36:11;18.03;;;12.87;;
1024;SDS011;501;48.214;11.350;2024-03-02T02:38:40;13.93;;;12.20;;
1024;SDS011;501;48.214;11.350;2024-03-02T02:41:12;14.73;;;12.00;;
1024;SDS011;501;48.214;11.350;2024-03-02T02:43:38;15.30;;;11.67;;
1024;SDS011;501;48.214;11.350;2024-03-02T02:46:05;13.30;;;11.60;;
1024;SDS011;501;48.214;11.350;2024-03-02T02:48:31;19.80;;;13.90;;
1024;SDS011;501;48.214;11.350;2024-03-02T02:50:57;18.07;;;12.63;;
1024;SDS011;501;48.214;11.350;2024-03-02T02:53:23;13.70;;;11.97;;
1024;SDS011;501;48.214;11.350;2024-03-02T02:55:48;18.97;;;14.27;;
1024;SDS011;501;48.214;11.350;2024-03-02T02:58:14;17.37;;;12.73;;
1024;SDS011;501;48.214;11.350;2024-03-02T03:00:40;15.07;;;11.60;;
1024;SDS011;501;48.214;11.350;2024-03-02T03:03:05;17.63;;;13.53;;
1024;SDS011;501;48.214;11.350;2024-03-02T03:05:31;20.60;;;14.00;;
1024;SDS011;501;48.214;11.350;2024-03-02T03:07:57;15.40;;;13.03;;
1024;SDS011;501;48.214;11.350;2024-03-02T03:10:22;17.40;;;13.30;;
1024;SDS011;501;48.214;11.350;2024-03-02T03:12:50;15.70;;;12.70;;
1024;SDS011;501;48.214;11.350;2024-03-02T03:15:16;16.63;;;13.23;;
1024;SDS011;501;48.214;11.350;2024-03-02T03:17:42;17.67;;;12.40;;
1024;SDS011;501;48.214;11.350;2024-03-02T03:20:08;15.13;;;12.30;;
1024;SDS011;501;48.214;11.350;2024-03-02T03:22:40;15.10;;;11.87;;
1024;SDS011;501;48.214;11.350;2024-03-02T03:25:06;14.50;;;12.70;;
1024;SDS011;501;48.214;11.350;2024-03-02T03:27:35;15.37;;;12.30;;
1024;SDS011;501;48.214;11.350;2024-03-02T03:30:01;14.87;;;12.37;;
1024;SDS011;501;48.214;11.350;2024-03-02T03:32:27;15.07;;;12.00;;
1024;SDS011;501;48.214;11.350;2024-03-02T03:34:53;14.53;;;12.33;;
1024;SDS011;501;48.214;11.350;2024-03-02T03:37:19;14.57;;;12.20;;
1024;SDS011;501;48.214;11.350;2024-03-02T03:39:44;18.10;;;13.10;;
1024;SDS011;501;48.214;11.350;2024-03-02T03:42:10;14.50;;;12.57;;
1024;SDS011;501;48.214;11.350;2024-03-02T03:44:36;16.00;;;12.50;;
1024;SDS011;501;48.214;11.350;2024-03-02T03:47:02;15.83;;;12.60;;
1024;SDS011;501;48.214;11.350;2024-03-02T03:49:27;15.73;;;14.03;;
1024;SDS011;501;48.214;11.350;2024-03-02T03:51:53;15.07;;;12.40;;
1024;SDS011;501;48.214;11.350;2024-03-02T03:54:19;19.33;;;13.13;;
1024;SDS011;501;48.214;11.350;2024-03-02T03:56:44;16.83;;;13.80;;
1024;SDS011;501;48.214;11.350;2024-03-02T03:59:10;13.83;;;12.00;;
1024;SDS011;501;48.214;11.350;2024-03-02T04:01:36;17.70;;;12.83;;
1024;SDS011;501;48.214;11.350;2024-03-02T04:04:02;17.60;;;13.80;;
1024;SDS011;501;48.214;11.350;2024-03-02T04:06:28;18.77;;;14.40;;
1024;SDS011;501;48.214;11.350;2024-03-02T04:08:54;18.37;;;14.50;;
1024;SDS011;501;48.214;11.350;2024-03-02T04:11:21;16.63;;;12.80;;
1024;SDS011;501;48.214;11.350;2024-03-02T04:13:47;20.77;;;14.30;;
1024;SDS011;501;48.214;11.350;2024-03-02T04:16:12;14.60;;;12.57;;
1024;SDS011;501;48.214;11.350;2024-03-02T04:18:38;16.47;;;13.40;;
1024;SDS011;501;48.214;11.350;2024-03-02T04:21:04;16.50;;;12.90;;
1024;SDS011;501;48.214;11.350;2024-03-02T04:23:30;17.53;;;13.43;;
1024;SDS011;501;48.214;11.350;2024-03-02T04:25:56;18.67;;;14.27;;
1024;SDS011;501;48.214;11.350;2024-03-02T04:28:22;17.97;;;13.43;;
1024;SDS011;501;48.214;11.350;2024-03-02T04:30:47;15.37;;;12.50;;
1024;SDS011;501;48.214;11.350;2024-03-02T04:33:13;18.50;;;13.20;;
1024;SDS011;501;48.214;11.350;2024-03-02T04:35:39;16.50;;;13.23;;
1024;SDS011;501;48.214;11.350;2024-03-02T04:38:04;16.80;;;13.90;;
1024;SDS011;501;48.214;11.350;2024-03-02T04:40:30;17.00;;;13.63;;
1024;SDS011;501;48.214;11.350;2024-03-02T04:42:57;17.70;;;13.77;;
1024;SDS011;501;48.214;11.350;2024-03-02T04:45:24;17.50;;;13.67;;
1024;SDS011;501;48.214;11.350;2024-03-02T04:47:49;14.83;;;12.77;;
1024;SDS011;501;48.214;11.350;2024-03-02T04:50:15;15.80;;;13.27;;
1024;SDS011;501;48.214;11.350;2024-03-02T04:52:41;18.60;;;13.63;;
1024;SDS011;501;48.214;11.350;2024-03-02T04:55:06;17.90;;;14.63;;
1024;SDS011;501;48.214;11.350;2024-03-02T04:57:41;18.53;;;13.63;;
1024;SDS011;501;48.214;11.350;2024-03-02T05:00:07;16.40;;;13.90;;
1024;SDS011;501;48.214;11.350;2024-03-02T05:02:34;15.90;;;13.60;;
1024;SDS011;501;48.214;11.350;2024-03-02T05:05:00;16.60;;;13.13;;
1024;SDS011;501;48.214;11.350;2024-03-02T05:07:26;15.40;;;12.40;;
1024;SDS011;501;48.214;11.350;2024-03-02T05:09:51;17.67;;;14.10;;
1024;SDS011;501;48.214;11.350;2024-03-02T05:12:17;17.93;;;13.30;;
1024;SDS011;501;48.214;11.350;2024-03-02T05:15:01;17.10;;;12.77;;
1024;SDS011;501;48.214;11.350;2024-03-02T05:17:27;18.87;;;14.07;;
1024;SDS011;501;48.214;11.350;2024-03-02T05:19:53;17.63;;;13.97;;
1024;SDS011;501;48.214;11.350;2024-03-02T05:22:18;17.57;;;13.37;;
1024;SDS011;501;48.214;11.350;2024-03-02T05:24:44;20.17;;;12.63;;
1024;SDS011;501;48.214;11.350;2024-03-02T05:27:09;15.60;;;12.87;;
1024;SDS011;501;48.214;11.350;2024-03-02T05:29:35;19.20;;;15.00;;
1024;SDS011;501;48.214;11.350;2024-03-02T05:32:01;15.70;;;12.80;;
1024;SDS011;501;48.214;11.350;2024-03-02T05:34:27;18.13;;;13.33;;
1024;SDS011;501;48.214;11.350;2024-03-02T05:36:53;18.17;;;14.37;;
1024;SDS011;501;48.214;11.350;2024-03-02T05:39:19;15.27;;;12.10;;
1024;SDS011;501;48.214;11.350;2024-03-02T05:41:45;15.80;;;11.77;;
1024;SDS011;501;48.214;11.350;2024-03-02T05:44:10;16.90;;;12.73;;
1024;SDS011;501;48.214;11.350;2024-03-02T05:46:37;18.43;;;12.57;;
1024;SDS011;501;48.214;11.350;2024-03-02T05:49:03;15.47;;;12.27;;
1024;SDS011;501;48.214;11.350;2024-03-02T05:51:28;19.10;;;14.00;;
1024;SDS011;501;48.214;11.350;2024-03-02T05:53:54;17.40;;;14.20;;
1024;SDS011;501;48.214;11.350;2024-03-02T05:56:20;18.07;;;12.90;;
1024;SDS011;501;48.214;11.350;2024-03-02T05:58:45;20.30;;;13.30;;
1024;SDS011;501;48.214;11.350;2024-03-02T06:01:37;15.07;;;11.67;;
1024;SDS011;501;48.214;11.350;2024-03-02T06:04:13;14.83;;;12.03;;
1024;SDS011;501;48.214;11.350;2024-03-02T06:06:39;15.50;;;12.33;;
1024;SDS011;501;48.214;11.350;2024-03-02T06:09:06;16.27;;;12.87;;
1024;SDS011;501;48.214;11.350;2024-03-02T06:11:37;14.13;;;12.47;;
1024;SDS011;501;48.214;11.350;2024-03-02T06:14:05;16.40;;;12.33;;
1024;SDS011;501;48.214;11.350;2024-03-02T06:16:32;15.83;;;12.97;;
1024;SDS011;501;48.214;11.350;2024-03-02T06:18:58;15.37;;;12.43;;
1024;SDS011;501;48.214;11.350;2024-03-02T06:21:24;17.57;;;13.90;;
1024;SDS011;501;48.214;11.350;2024-03-02T06:23:50;15.90;;;12.87;;
1024;SDS011;501;48.214;11.350;2024-03-02T06:26:16;18.47;;;13.43;;
1024;SDS011;501;48.214;11.350;2024-03-02T06:28:42;18.23;;;13.50;;
1024;SDS011;501;48.214;11.350;2024-03-02T06:31:08;15.83;;;13.00;;
1024;SDS011;501;48.214;11.350;2024-03-02T06:33:34;17.80;;;13.40;;
1024;SDS011;501;48.214;11.350;2024-03-02T06:35:59;17.53;;;13.37;;
1024;SDS011;501;48.214;11.350;2024-03-02T06:38:27;15.83;;;12.80;;
1024;SDS011;501;48.214;11.350;2024-03-02T06:40:53;17.77;;;13.27;;
1024;SDS011;501;48.214;11.350;2024-03-02T06:43:18;19.90;;;14.63;;
1024;SDS011;501;48.214;11.350;2024-03-02T06:45:48;19.43;;;12.70;;
1024;SDS011;501;48.214;11.350;2024-03-02T06:48:14;19.43;;;15.27;;
1024;SDS011;501;48.214;11.350;2024-03-02T06:50:44;17.80;;;14.27;;
1024;SDS011;501;48.214;11.350;2024-03-02T06:53:10;15.53;;;12.87;;
1024;SDS011;501;48.214;11.350;2024-03-02T06:55:35;16.13;;;13.13;;
1024;SDS011;501;48.214;11.350;2024-03-02T06:58:01;17.67;;;13.23;;
1024;SDS011;501;48.214;11.350;2024-03-02T07:00:27;15.20;;;12.23;;
1024;SDS011;501;48.214;11.350;2024-03-02T07:02:52;17.60;;;11.77;;
1024;SDS011;501;48.214;11.350;2024-03-02T07:05:18;16.23;;;13.40;;
1024;SDS011;501;48.214;11.350;2024-03-02T07:07:43;14.43;;;12.77;;
1024;SDS011;501;48.214;11.350;2024-03-02T07:10:09;14.83;;;11.60;;
1024;SDS011;501;48.214;11.350;2024-03-02T07:12:35;16.50;;;11.30;;
1024;SDS011;501;48.214;11.350;2024-03-02T07:15:01;14.90;;;12.40;;
1024;SDS011;501;48.214;11.350;2024-03-02T07:17:27;16.20;;;12.33;;
1024;SDS011;501;48.214;11.350;2024-03-02T07:19:53;17.10;;;12.93;;
1024;SDS011;501;48.214;11.350;2024-03-02T07:22:18;19.20;;;13.60;;
1024;SDS011;501;48.214;11.350;2024-03-02T07:24:44;19.80;;;15.07;;
1024;SDS011;501;48.214;11.350;2024-03-02T07:27:14;17.37;;;14.10;;
1024;SDS011;501;48.214;11.350;2024-03-02T07:29:40;19.57;;;15.13;;
1024;SDS011;501;48.214;11.350;2024-03-02T07:32:06;23.50;;;16.93;;
1024;SDS011;501;48.214;11.350;2024-03-02T07:34:33;19.23;;;15.20;;
1024;SDS011;501;48.214;11.350;2024-03-02T07:36:59;19.83;;;15.07;;
1024;SDS011;501;48.214;11.350;2024-03-02T07:39:25;20.63;;;15.10;;
1024;SDS011;501;48.214;11.350;2024-03-02T07:41:51;19.93;;;14.80;;
1024;SDS011;501;48.214;11.350;2024-03-02T07:44:17;20.17;;;16.30;;
1024;SDS011;501;48.214;11.350;2024-03-02T07:46:44;21.90;;;14.57;;
1024;SDS011;501;48.214;11.350;2024-03-02T07:49:17;21.43;;;14.93;;
1024;SDS011;501;48.214;11.350;2024-03-02T07:51:43;21.23;;;14.97;;
1024;SDS011;501;48.214;11.350;2024-03-02T07:54:09;19.73;;;15.93;;
1024;SDS011;501;48.214;11.350;2024-03-02T07:56:35;22.67;;;16.60;;
1024;SDS011;501;48.214;11.350;2024-03-02T07:59:03;20.80;;;15.03;;
1024;SDS011;501;48.214;11.350;2024-03-02T08:01:30;21.07;;;15.50;;
1024;SDS011;501;48.214;11.350;2024-03-02T08:03:57;22.20;;;15.83;;
1024;SDS011;501;48.214;11.350;2024-03-02T08:06:27;22.80;;;15.60;;
1024;SDS011;501;48.214;11.350;2024-03-02T08:08:53;19.67;;;15.73;;
1024;SDS011;501;48.214;11.350;2024-03-02T08:11:21;20.13;;;14.97;;
1024;SDS011;501;48.214;11.350;2024-03-02T08:13:47;18.43;;;14.30;;
1024;SDS011;501;48.214;11.350;2024-03-02T08:16:13;25.23;;;16.63;;
1024;SDS011;501;48.214;11.350;2024-03-02T08:18:40;19.07;;;15.20;;
1024;SDS011;501;48.214;11.350;2024-03-02T08:21:06;19.53;;;14.40;;
1024;SDS011;501;48.214;11.350;2024-03-02T08:23:33;20.47;;;15.57;;
1024;SDS011;501;48.214;11.350;2024-03-02T08:25:59;22.90;;;15.83;;
1024;SDS011;501;48.214;11.350;2024-03-02T08:28:24;23.43;;;17.13;;
1024;SDS011;501;48.214;11.350;2024-03-02T08:30:50;21.73;;;15.30;;
1024;SDS011;501;48.214;11.350;2024-03-02T08:33:16;19.00;;;15.47;;
1024;SDS011;501;48.214;11.350;2024-03-02T08:35:43;17.60;;;13.93;;
1024;SDS011;501;48.214;11.350;2024-03-02T08:38:08;18.93;;;13.40;;
1024;SDS011;501;48.214;11.350;2024-03-02T08:40:34;17.90;;;13.47;;
1024;SDS011;501;48.214;11.350;2024-03-02T08:43:00;16.97;;;12.90;;
1024;SDS011;501;48.214;11.350;2024-03-02T08:45:26;18.60;;;13.10;;
1024;SDS011;501;48.214;11.350;2024-03-02T08:47:51;19.83;;;15.43;;
1024;SDS011;501;48.214;11.350;2024-03-02T08:50:17;20.97;;;15.10;;
1024;SDS011;501;48.214;11.350;2024-03-02T08:52:43;20.20;;;14.93;;
1024;SDS011;501;48.214;11.350;2024-03-02T08:55:09;19.50;;;15.10;;
1024;SDS011;501;48.214;11.350;2024-03-02T08:57:36;19.13;;;14.17;;
1024;SDS011;501;48.214;11.350;2024-03-02T09:00:02;21.80;;;15.23;;
1024;SDS011;501;48.214;11.350;2024-03-02T09:02:28;19.33;;;15.33;;
1024;SDS011;501;48.214;11.350;2024-03-02T09:04:54;19.90;;;15.47;;
1024;SDS011;501;48.214;11.350;2024-03-02T09:07:19;21.33;;;15.27;;
1024;SDS011;501;48.214;11.350;2024-03-02T09:09:45;18.40;;;14.20;;
1024;SDS011;501;48.214;11.350;2024-03-02T09:12:10;20.67;;;14.77;;
1024;SDS011;501;48.214;11.350;2024-03-02T09:14:36;18.23;;;14.00;;
1024;SDS011;501;48.214;11.350;2024-03-02T09:17:02;16.70;;;13.63;;
1024;SDS011;501;48.214;11.350;2024-03-02T09:19:28;23.20;;;13.80;;
1024;SDS011;501;48.214;11.350;2024-03-02T09:21:54;18.00;;;13.37;;
1024;SDS011;501;48.214;11.350;2024-03-02T09:24:21;19.97;;;13.60;;
1024;SDS011;501;48.214;11.350;2024-03-02T09:26:47;18.70;;;13.83;;
1024;SDS011;501;48.214;11.350;2024-03-02T09:29:12;17.60;;;12.63;;
1024;SDS011;501;48.214;11.350;2024-03-02T09:31:42;17.53;;;12.80;;
1024;SDS011;501;48.214;11.350;2024-03-02T09:34:08;19.73;;;14.20;;
1024;SDS011;501;48.214;11.350;2024-03-02T09:36:34;21.53;;;14.63;;
1024;SDS011;501;48.214;11.350;2024-03-02T09:38:59;17.37;;;12.67;;
1024;SDS011;501;48.214;11.350;2024-03-02T09:41:25;16.13;;;12.77;;
1024;SDS011;501;48.214;11.350;2024-03-02T09:43:51;18.57;;;13.83;;
1024;SDS011;501;48.214;11.350;2024-03-02T09:46:17;21.00;;;15.07;;
1024;SDS011;501;48.214;11.350;2024-03-02T09:48:44;17.57;;;14.07;;
1024;SDS011;501;48.214;11.350;2024-03-02T09:51:10;17.10;;;13.37;;
1024;SDS011;501;48.214;11.350;2024-03-02T09:53:36;19.23;;;15.50;;
1024;SDS011;501;48.214;11.350;2024-03-02T09:56:03;17.60;;;14.70;;
1024;SDS011;501;48.214;11.350;2024-03-02T09:58:29;17.53;;;14.03;;
1024;SDS011;501;48.214;11.350;2024-03-02T10:00:55;18.70;;;14.83;;
1024;SDS011;501;48.214;11.350;2024-03-02T10:03:22;23.23;;;15.23;;
1024;SDS011;501;48.214;11.350;2024-03-02T10:05:51;18.03;;;13.20;;
1024;SDS011;501;48.214;11.350;2024-03-02T10:08:17;18.23;;;15.20;;
1024;SDS011;501;48.214;11.350;2024-03-02T10:10:43;19.23;;;14.10;;
1024;SDS011;501;48.214;11.350;2024-03-02T10:13:09;18.87;;;13.93;;
1024;SDS011;501;48.214;11.350;2024-03-02T10:15:36;16.07;;;11.97;;
1024;SDS011;501;48.214;11.350;2024-03-02T10:18:26;16.33;;;12.90;;
1024;SDS011;501;48.214;11.350;2024-03-02T10:20:52;17.47;;;13.50;;
1024;SDS011;501;48.214;11.350;2024-03-02T10:23:17;16.67;;;11.67;;
1024;SDS011;501;48.214;11.350;2024-03-02T10:25:43;16.90;;;12.83;;
1024;SDS011;501;48.214;11.350;2024-03-02T10:28:10;15.97;;;13.07;;
1024;SDS011;501;48.214;11.350;2024-03-02T10:30:35;14.60;;;12.40;;
1024;SDS011;501;48.214;11.350;2024-03-02T10:33:02;18.57;;;12.87;;
1024;SDS011;501;48.214;11.350;2024-03-02T10:35:28;15.77;;;12.00;;
1024;SDS011;501;48.214;11.350;2024-03-02T10:37:56;14.80;;;10.70;;
1024;SDS011;501;48.214;11.350;2024-03-02T10:40:24;13.43;;;11.07;;
1024;SDS011;501;48.214;11.350;2024-03-02T10:42:51;14.33;;;10.23;;
1024;SDS011;501;48.214;11.350;2024-03-02T10:45:17;16.63;;;11.13;;
1024;SDS011;501;48.214;11.350;2024-03-02T10:47:44;15.43;;;11.80;;
1024;SDS011;501;48.214;11.350;2024-03-02T10:50:11;14.90;;;11.27;;
1024;SDS011;501;48.214;11.350;2024-03-02T10:52:37;16.67;;;10.77;;
1024;SDS011;501;48.214;11.350;2024-03-02T10:55:04;18.33;;;12.70;;
1024;SDS011;501;48.214;11.350;2024-03-02T11:00:19;17.43;;;12.57;;
1024;SDS011;501;48.214;11.350;2024-03-02T11:02:52;16.10;;;12.20;;
1024;SDS011;501;48.214;11.350;2024-03-02T11:05:43;18.07;;;13.20;;
1024;SDS011;501;48.214;11.350;2024-03-02T11:08:16;17.07;;;12.20;;
1024;SDS011;501;48.214;11.350;2024-03-02T11:10:54;16.23;;;12.90;;
1024;SDS011;501;48.214;11.350;2024-03-02T11:13:42;16.60;;;12.47;;
1024;SDS011;501;48.214;11.350;2024-03-02T11:16:24;10.90;;;9.20;;
1024;SDS011;501;48.214;11.350;2024-03-02T11:19:00;10.57;;;9.17;;
1024;SDS011;501;48.214;11.350;2024-03-02T11:21:36;10.53;;;8.87;;
1024;SDS011;501;48.214;11.350;2024-03-02T11:26:52;14.23;;;10.50;;
1024;SDS011;501;48.214;11.350;2024-03-02T11:32:05;12.03;;;9.10;;
1024;SDS011;501;48.214;11.350;2024-03-02T11:34:38;14.37;;;10.13;;
1024;SDS011;501;48.214;11.350;2024-03-02T11:37:10;16.60;;;11.40;;
1024;SDS011;501;48.214;11.350;2024-03-02T11:39:37;16.20;;;11.10;;
1024;SDS011;501;48.214;11.350;2024-03-02T11:42:07;18.90;;;11.33;;
1024;SDS011;501;48.214;11.350;2024-03-02T11:44:34;16.67;;;11.20;;
1024;SDS011;501;48.214;11.350;2024-03-02T11:47:01;13.40;;;10.60;;
1024;SDS011;501;48.214;11.350;2024-03-02T11:52:14;17.03;;;11.10;;
1024;SDS011;501;48.214;11.350;2024-03-02T11:54:41;14.93;;;11.07;;
1024;SDS011;501;48.214;11.350;2024-03-02T11:57:23;17.03;;;12.43;;
1024;SDS011;501;48.214;11.350;2024-03-02T11:59:48;16.47;;;11.77;;
1024;SDS011;501;48.214;11.350;2024-03-02T12:02:18;15.27;;;11.30;;
1024;SDS011;501;48.214;11.350;2024-03-02T12:04:45;16.10;;;11.37;;
1024;SDS011;501;48.214;11.350;2024-03-02T12:07:18;16.43;;;12.53;;
1024;SDS011;501;48.214;11.350;2024-03-02T12:09:48;16.50;;;11.50;;
1024;SDS011;501;48.214;11.350;2024-03-02T12:12:25;18.70;;;12.60;;
1024;SDS011;501;48.214;11.350;2024-03-02T12:14:52;18.03;;;12.40;;
1024;SDS011;501;48.214;11.350;2024-03-02T12:17:20;15.80;;;10.70;;
1024;SDS011;501;48.214;11.350;2024-03-02T12:19:46;16.23;;;11.80;;
1024;SDS011;501;48.214;11.350;2024-03-02T12:22:12;17.40;;;11.73;;
1024;SDS011;501;48.214;11.350;2024-03-02T12:24:38;14.53;;;11.57;;
1024;SDS011;501;48.214;11.350;2024-03-02T12:27:05;14.83;;;11.53;;
1024;SDS011;501;48.214;11.350;2024-03-02T12:29:31;14.17;;;11.30;;
1024;SDS011;501;48.214;11.350;2024-03-02T12:31:59;21.13;;;13.97;;
1024;SDS011;501;48.214;11.350;2024-03-02T12:34:26;14.60;;;12.07;;
1024;SDS011;501;48.214;11.350;2024-03-02T12:36:54;17.23;;;13.07;;
1024;SDS011;501;48.214;11.350;2024-03-02T12:39:20;17.63;;;14.10;;
1024;SDS011;501;48.214;11.350;2024-03-02T12:41:47;24.20;;;15.17;;
1024;SDS011;501;48.214;11.350;2024-03-02T12:44:16;18.17;;;14.07;;
1024;SDS011;501;48.214;11.350;2024-03-02T12:46:43;24.00;;;15.20;;
1024;SDS011;501;48.214;11.350;2024-03-02T12:49:13;19.93;;;14.50;;
1024;SDS011;501;48.214;11.350;2024-03-02T12:51:45;20.40;;;15.00;;
1024;SDS011;501;48.214;11.350;2024-03-02T12:54:16;19.77;;;13.47;;
1024;SDS011;501;48.214;11.350;2024-03-02T12:56:42;21.90;;;15.07;;
1024;SDS011;501;48.214;11.350;2024-03-02T12:59:17;21.23;;;15.10;;
1024;SDS011;501;48.214;11.350;2024-03-02T13:04:24;18.00;;;14.00;;
1024;SDS011;501;48.214;11.350;2024-03-02T13:06:51;21.60;;;14.00;;
1024;SDS011;501;48.214;11.350;2024-03-02T13:09:17;20.13;;;15.43;;
1024;SDS011;501;48.214;11.350;2024-03-02T13:11:43;15.47;;;13.33;;
1024;SDS011;501;48.214;11.350;2024-03-02T13:14:13;16.70;;;14.27;;
1024;SDS011;501;48.214;11.350;2024-03-02T13:16:39;18.57;;;13.60;;
1024;SDS011;501;48.214;11.350;2024-03-02T13:19:11;20.00;;;14.70;;
1024;SDS011;501;48.214;11.350;2024-03-02T13:21:37;17.03;;;13.50;;
1024;SDS011;501;48.214;11.350;2024-03-02T13:24:03;17.53;;;12.80;;
1024;SDS011;501;48.214;11.350;2024-03-02T13:26:30;17.10;;;12.83;;
1024;SDS011;501;48.214;11.350;2024-03-02T13:28:56;13.30;;;11.30;;
1024;SDS011;501;48.214;11.350;2024-03-02T13:31:21;16.57;;;12.00;;
1024;SDS011;501;48.214;11.350;2024-03-02T13:33:47;14.70;;;11.67;;
1024;SDS011;501;48.214;11.350;2024-03-02T13:36:13;15.90;;;10.80;;
1024;SDS011;501;48.214;11.350;2024-03-02T13:38:39;13.90;;;11.53;;
1024;SDS011;501;48.214;11.350;2024-03-02T13:41:04;14.43;;;10.33;;
1024;SDS011;501;48.214;11.350;2024-03-02T13:43:30;16.20;;;12.70;;
1024;SDS011;501;48.214;11.350;2024-03-02T13:45:57;15.87;;;11.57;;
1024;SDS011;501;48.214;11.350;2024-03-02T13:48:24;14.20;;;10.53;;
1024;SDS011;501;48.214;11.350;2024-03-02T13:50:51;12.93;;;11.03;;
1024;SDS011;501;48.214;11.350;2024-03-02T13:53:18;17.90;;;11.70;;
1024;SDS011;501;48.214;11.350;2024-03-02T13:55:44;12.33;;;10.63;;
1024;SDS011;501;48.214;11.350;2024-03-02T13:58:09;13.87;;;12.17;;
1024;SDS011;501;48.214;11.350;2024-03-02T14:00:36;13.70;;;10.97;;
1024;SDS011;501;48.214;11.350;2024-03-02T14:03:03;12.60;;;11.13;;
1024;SDS011;501;48.214;11.350;2024-03-02T14:05:30;12.17;;;10.03;;
1024;SDS011;501;48.214;11.350;2024-03-02T14:07:56;12.40;;;11.00;;
1024;SDS011;501;48.214;11.350;2024-03-02T14:10:22;11.80;;;10.00;;
1024;SDS011;501;48.214;11.350;2024-03-02T14:12:48;11.37;;;10.13;;
1024;SDS011;501;48.214;11.350;2024-03-02T14:15:14;12.60;;;9.23;;
1024;SDS011;501;48.214;11.350;2024-03-02T14:17:40;11.70;;;9.73;;
1024;SDS011;501;48.214;11.350;2024-03-02T14:20:06;13.70;;;10.77;;
1024;SDS011;501;48.214;11.350;2024-03-02T14:22:32;9.33;;;8.33;;
1024;SDS011;501;48.214;11.350;2024-03-02T14:24:59;10.30;;;9.17;;
1024;SDS011;501;48.214;11.350;2024-03-02T14:27:24;10.30;;;8.20;;
1024;SDS011;501;48.214;11.350;2024-03-02T14:29:50;11.13;;;9.93;;
1024;SDS011;501;48.214;11.350;2024-03-02T14:32:16;10.60;;;9.10;;
1024;SDS011;501;48.214;11.350;2024-03-02T14:34:41;12.10;;;9.70;;
1024;SDS011;501;48.214;11.350;2024-03-02T14:37:07;12.97;;;9.30;;
1024;SDS011;501;48.214;11.350;2024-03-02T14:39:33;10.37;;;8.40;;
1024;SDS011;501;48.214;11.350;2024-03-02T14:42:00;11.27;;;8.63;;
1024;SDS011;501;48.214;11.350;2024-03-02T14:44:26;10.90;;;8.63;;
1024;SDS011;501;48.214;11.350;2024-03-02T14:46:52;12.87;;;9.30;;
1024;SDS011;501;48.214;11.350;2024-03-02T14:49:18;10.33;;;8.50;;
1024;SDS011;501;48.214;11.350;2024-03-02T14:51:44;12.30;;;7.93;;
1024;SDS011;501;48.214;11.350;2024-03-02T14:54:09;10.50;;;8.27;;
1024;SDS011;501;48.214;11.350;2024-03-02T14:56:35;10.27;;;8.40;;
1024;SDS011;501;48.214;11.350;2024-03-02T14:59:01;9.87;;;8.27;;
1024;SDS011;501;48.214;11.350;2024-03-02T15:01:27;9.70;;;7.70;;
1024;SDS011;501;48.214;11.350;2024-03-02T15:03:53;10.17;;;8.57;;
1024;SDS011;501;48.214;11.350;2024-03-02T15:06:18;11.00;;;8.80;;
1024;SDS011;501;48.214;11.350;2024-03-02T15:08:44;13.37;;;9.43;;